Latest Weather Observations for Williamson

IDQ60801

Issued at 2:52 pm EST Monday 23 September 2019 (issued every 10 minutes, with the page automatically refreshed every 10 minutes)

About weather observations | Map of weather stations | Latest weather observations for QLD | Other Formats
Station Details ID: 033195 Name: WILLIAMSON Lat: -22.47 Lon: 150.18 Height: 27.6 m
Data from the previous 72 hours. | See also: Recent months at Williamson
Date/Time
EST
Temp
°C
App
Temp
°C
Dew
Point
°C
Rel
Hum
%
Delta-T
°C
Wind Press
QNH
hPa
Press
MSL
hPa
Rain since
9am
mm
Dir  Spd
km/h
Gust
km/h
Spd
kts
Gust
kts
23/02:30pm 26.2 24.7 15.3 51 6.6 NE 17 30 9 16 1020.0 1019.9 0.0
23/02:00pm 26.8 25.0 14.5 46 7.4 NE 17 28 9 15 1020.4 1020.3 0.0
23/01:30pm 27.1 25.5 15.1 47 7.3 NE 17 30 9 16 1020.8 1020.7 0.0
23/01:00pm 27.4 25.9 14.1 44 7.9 NE 15 24 8 13 1021.3 1021.2 0.0
23/12:30pm 26.7 24.4 14.1 46 7.5 NNE 19 32 10 17 1021.7 1021.6 0.0
23/12:00pm 26.4 24.8 13.9 46 7.4 NE 15 26 8 14 1022.0 1021.9 0.0
23/11:30am 27.0 25.1 11.9 39 8.7 ENE 13 26 7 14 1022.6 1022.5 0.0
23/11:00am 27.4 25.1 10.6 35 9.4 NE 13 19 7 10 1023.0 1022.9 0.0
23/10:30am 26.5 24.6 10.6 37 8.9 NE 11 20 6 11 1023.6 1023.5 0.0
23/10:00am 25.7 25.7 13.5 46 7.1 E 6 13 3 7 1023.8 1023.7 0.0
23/09:30am 24.8 24.7 14.0 51 6.4 ENE 7 15 4 8 1024.1 1024.0 0.0
23/09:00am 24.6 24.5 15.0 55 5.7 ENE 9 19 5 10 1024.2 1024.1 0.0
23/08:30am 23.5 24.2 16.1 63 4.5 S 7 11 4 6 1024.4 1024.3 0.0
23/08:00am 21.7 22.9 16.9 74 2.9 SSE 6 7 3 4 1024.5 1024.4 0.0
23/07:30am 18.1 20.1 15.9 87 1.3 CALM 0 0 0 0 1024.4 1024.3 0.0
23/07:00am 14.9 16.4 14.6 98 0.2 CALM 0 0 0 0 1024.3 1024.2 0.0
23/06:30am 12.1 12.7 11.8 98 0.2 CALM 0 0 0 0 1024.2 1024.1 0.0
23/06:00am 11.1 11.3 10.6 97 0.3 CALM 0 0 0 0 1024.3 1024.2 0.0
23/05:30am 11.1 11.4 10.8 98 0.2 CALM 0 0 0 0 1024.3 1024.2 0.0
23/05:00am 11.4 11.7 10.9 97 0.3 CALM 0 0 0 0 1024.1 1024.0 0.0
23/04:30am 11.3 11.5 10.7 96 0.3 CALM 0 0 0 0 1024.0 1023.9 0.0
23/04:00am 11.3 11.5 10.7 96 0.3 CALM 0 0 0 0 1023.9 1023.8 0.0
23/03:30am 12.0 12.1 11.4 96 0.3 S 2 6 1 3 1023.9 1023.8 0.0
23/03:00am 12.2 12.6 11.3 94 0.5 CALM 0 0 0 0 1023.7 1023.6 0.0
23/02:30am 12.5 12.9 11.4 93 0.6 CALM 0 0 0 0 1023.9 1023.8 0.0
23/02:00am 13.0 13.7 12.1 94 0.5 CALM 0 0 0 0 1024.0 1023.9 0.0
23/01:30am 13.1 13.7 11.8 92 0.7 CALM 0 0 0 0 1024.2 1024.1 0.0
23/01:00am 13.6 14.4 12.7 94 0.5 CALM 0 0 0 0 1024.4 1024.3 0.0
23/12:30am 14.5 15.6 13.4 93 0.6 CALM 0 0 0 0 1024.5 1024.4 0.0
23/12:00am 14.8 15.7 13.0 89 1.0 CALM 0 0 0 0 1024.5 1024.4 0.0
 
Date/Time
EST
Temp
°C
App
Temp
°C
Dew
Point
°C
Rel
Hum
%
Delta-T
°C
Wind Press
QNH
hPa
Press
MSL
hPa
Rain since
9am
mm
Dir  Spd
km/h
Gust
km/h
Spd
kts
Gust
kts
22/11:30pm 15.4 16.5 13.4 88 1.1 CALM 0 0 0 0 1024.4 1024.3 0.0
22/11:00pm 16.1 17.2 13.6 85 1.4 CALM 0 2 0 1 1024.5 1024.4 0.0
22/10:30pm 16.9 17.0 13.8 82 1.8 S 6 7 3 4 1024.4 1024.3 0.0
22/10:00pm 19.1 20.3 15.8 81 2.0 ENE 4 9 2 5 1024.3 1024.2 0.0
22/09:30pm 19.9 20.6 16.0 78 2.3 E 7 11 4 6 1024.3 1024.2 0.0
22/09:00pm 20.3 20.4 15.5 74 2.8 ENE 9 15 5 8 1024.3 1024.2 0.0
22/08:30pm 20.7 20.6 15.0 70 3.4 ENE 9 15 5 8 1024.2 1024.1 0.0
22/08:00pm 21.0 21.0 14.2 65 3.9 E 7 17 4 9 1024.0 1023.9 0.0
22/07:30pm 21.2 20.9 13.4 61 4.5 E 7 15 4 8 1023.6 1023.5 0.0
22/07:00pm 22.0 21.1 12.5 54 5.4 E 9 13 5 7 1023.4 1023.3 0.0
22/06:30pm 22.5 20.6 11.9 51 6.0 E 13 20 7 11 1023.0 1022.9 0.0
22/06:00pm 23.2 21.2 11.6 48 6.5 ENE 13 20 7 11 1022.7 1022.6 0.0
22/05:30pm 24.0 20.8 11.3 45 7.1 E 19 28 10 15 1022.3 1022.2 0.0
22/05:00pm 24.8 21.4 11.4 43 7.5 ENE 20 33 11 18 1022.2 1022.1 0.0
22/04:30pm 25.9 22.2 9.3 35 9.1 ENE 19 30 10 16 1022.1 1022.0 0.0
22/04:00pm 26.5 23.8 10.2 36 9.1 E 15 24 8 13 1021.8 1021.7 0.0
22/03:30pm 26.5 23.0 10.2 36 9.1 E 19 32 10 17 1021.6 1021.5 0.0
22/03:00pm 27.1 23.9 9.9 34 9.5 ENE 17 33 9 18 1021.6 1021.5 0.0
22/02:30pm 26.7 23.6 11.6 39 8.6 ENE 19 30 10 16 1021.6 1021.5 0.0
22/02:00pm 27.0 23.7 11.5 38 8.8 ENE 20 39 11 21 1021.7 1021.6 0.0
22/01:30pm 26.5 23.7 13.3 44 7.8 ENE 20 33 11 18 1022.0 1021.9 0.0
22/01:00pm 25.9 23.0 12.4 43 7.8 NE 19 28 10 15 1022.5 1022.4 0.0
22/12:30pm 26.4 24.2 13.2 44 7.7 ENE 17 28 9 15 1022.8 1022.7 0.0
22/12:00pm 25.2 22.7 13.4 48 6.9 E 19 33 10 18 1023.2 1023.1 0.0
22/11:30am 26.1 23.5 13.2 44 7.6 ENE 19 30 10 16 1023.5 1023.4 0.0
22/11:00am 27.0 24.1 13.0 42 8.2 E 20 41 11 22 1023.6 1023.5 0.0
22/10:30am 26.1 24.2 12.9 44 7.7 ENE 15 28 8 15 1024.0 1023.9 0.0
22/10:00am 25.6 24.0 13.8 48 6.9 ENE 15 28 8 15 1024.2 1024.1 0.0
22/09:30am 24.7 23.2 15.3 56 5.7 ENE 17 28 9 15 1024.3 1024.2 0.0
22/09:00am 24.1 23.7 16.1 61 4.9 E 13 22 7 12 1024.4 1024.3 0.0
22/08:30am 24.0 23.7 16.5 63 4.6 ENE 13 19 7 10 1024.5 1024.4 0.0
22/08:00am 22.4 22.7 17.1 72 3.2 E 11 17 6 9 1024.5 1024.4 0.0
22/07:30am 21.6 21.7 17.4 77 2.6 E 13 19 7 10 1024.2 1024.1 0.0
22/07:00am 20.0 21.2 16.0 78 2.4 E 4 7 2 4 1023.9 1023.8 0.0
22/06:30am 20.1 21.8 16.1 78 2.4 ENE 2 7 1 4 1023.5 1023.4 0.0
22/06:00am 20.2 20.8 15.8 76 2.6 ENE 7 11 4 6 1023.3 1023.2 0.0
22/05:30am 20.2 20.3 16.4 79 2.3 E 11 17 6 9 1023.1 1023.0 0.0
22/05:00am 19.9 20.6 17.1 84 1.7 ESE 9 17 5 9 1022.8 1022.7 0.0
22/04:30am 19.2 20.6 18.7 97 0.3 ESE 9 15 5 8 1022.4 1022.3 0.0
22/04:00am 14.3 14.6 13.3 94 0.6 SSE 4 9 2 5 1022.1 1022.0 0.0
22/03:30am 14.0 14.5 12.9 93 0.6 WNW 2 9 1 5 1021.9 1021.8 0.0
22/03:00am 14.3 14.1 13.0 92 0.7 SSE 6 9 3 5 1021.9 1021.8 0.0
22/02:30am 14.5 15.4 13.0 91 0.8 CALM 0 0 0 0 1021.9 1021.8 0.0
22/02:00am 15.0 16.1 13.5 91 0.8 CALM 0 0 0 0 1022.2 1022.1 0.0
22/01:30am 15.3 16.5 13.7 90 0.9 CALM 0 0 0 0 1022.5 1022.4 0.0
22/01:00am 15.4 16.5 13.4 88 1.1 CALM 0 0 0 0 1022.7 1022.6 0.0
22/12:30am 16.0 17.1 13.5 85 1.4 CALM 0 0 0 0 1022.8 1022.7 0.0
22/12:00am 16.9 17.8 14.0 83 1.6 SSE 2 7 1 4 1022.9 1022.8 0.0
 
Date/Time
EST
Temp
°C
App
Temp
°C
Dew
Point
°C
Rel
Hum
%
Delta-T
°C
Wind Press
QNH
hPa
Press
MSL
hPa
Rain since
9am
mm
Dir  Spd
km/h
Gust
km/h
Spd
kts
Gust
kts
21/11:30pm 19.0 19.9 15.1 78 2.3 ENE 4 9 2 5 1022.9 1022.8 0.0
21/11:00pm 20.1 20.4 15.9 77 2.5 E 9 15 5 8 1022.9 1022.8 0.0
21/10:30pm 20.1 20.4 15.9 77 2.5 E 9 13 5 7 1023.0 1022.9 0.0
21/10:00pm 20.0 20.8 15.8 77 2.5 E 6 11 3 6 1022.9 1022.8 0.0
21/09:30pm 20.5 20.8 15.9 75 2.8 E 9 17 5 9 1022.8 1022.7 0.0
21/09:00pm 20.8 20.6 15.6 72 3.1 E 11 20 6 11 1022.7 1022.6 0.0
21/08:30pm 20.9 20.2 15.4 71 3.3 E 13 20 7 11 1022.6 1022.5 0.0
21/08:00pm 21.0 20.3 15.5 71 3.3 E 13 24 7 13 1022.4 1022.3 0.0
21/07:30pm 21.2 20.5 15.3 69 3.5 E 13 20 7 11 1022.1 1022.0 0.0
21/07:00pm 21.6 20.2 14.5 64 4.2 E 15 20 8 11 1021.6 1021.5 0.0
21/06:30pm 22.1 20.3 13.2 57 5.1 E 15 24 8 13 1021.5 1021.4 0.0
21/06:00pm 22.6 21.0 12.8 54 5.6 ENE 13 24 7 13 1021.0 1020.9 0.0
21/05:30pm 23.4 21.6 13.3 53 5.9 E 15 26 8 14 1020.8 1020.7 0.0
21/05:00pm 24.1 22.1 13.9 53 6.0 E 17 30 9 16 1020.5 1020.4 0.0
21/04:30pm 25.0 22.4 13.2 48 6.9 ENE 19 32 10 17 1020.3 1020.2 0.0
21/04:00pm 25.8 23.5 11.9 42 7.9 ENE 15 28 8 15 1020.0 1019.9 0.0
21/03:30pm 26.0 23.3 11.7 41 8.2 ENE 17 32 9 17 1020.0 1019.9 0.0
21/03:00pm 26.2 23.1 11.5 40 8.4 ENE 19 28 10 15 1020.0 1019.9 0.0
21/02:30pm 26.4 23.7 12.8 43 7.9 ENE 19 30 10 16 1020.3 1020.2 0.0
21/02:00pm 26.9 24.3 13.3 43 8.0 NE 19 30 10 16 1020.6 1020.5 0.0
21/01:30pm 26.8 23.9 13.9 45 7.7 NE 22 33 12 18 1021.0 1020.9 0.0
21/01:00pm 26.8 23.8 12.5 41 8.3 ENE 20 37 11 20 1021.3 1021.2 0.0
21/12:30pm 26.8 23.3 12.1 40 8.5 NE 22 33 12 18 1021.7 1021.6 0.0
21/12:00pm 25.9 23.1 12.7 44 7.6 ENE 19 30 10 16 1022.2 1022.1 0.0
21/11:30am 27.4 24.9 12.2 39 8.8 NE 17 30 9 16 1022.6 1022.5 0.0
21/11:00am 26.7 25.1 13.8 45 7.6 E 15 28 8 15 1022.9 1022.8 0.0
21/10:30am 25.7 24.2 13.2 46 7.3 ENE 13 20 7 11 1023.2 1023.1 0.0
21/10:00am 25.8 24.0 13.3 46 7.3 E 15 33 8 18 1023.3 1023.2 0.0
21/09:30am 24.9 23.3 13.8 50 6.5 E 15 24 8 13 1023.4 1023.3 0.0
21/09:00am 24.6 23.1 14.1 52 6.2 E 15 26 8 14 1023.6 1023.5 0.0
21/08:30am 23.6 22.5 15.4 60 4.9 E 15 24 8 13 1023.7 1023.6 0.0
21/08:00am 23.3 23.4 15.6 62 4.6 E 9 20 5 11 1023.7 1023.6 0.0
21/07:30am 22.4 22.6 16.7 70 3.5 ESE 11 19 6 10 1023.6 1023.5 0.0
21/07:00am 17.8 19.9 16.3 91 0.9 CALM 0 0 0 0 1023.2 1023.1 0.0
21/06:30am 14.1 14.3 13.1 94 0.6 SE 4 7 2 4 1023.2 1023.1 0.0
21/06:00am 13.0 13.6 11.9 93 0.6 CALM 0 0 0 0 1022.9 1022.8 0.0
21/05:30am 13.1 13.8 12.2 94 0.5 CALM 0 0 0 0 1022.7 1022.6 0.0
21/05:00am 13.0 13.7 12.1 94 0.5 CALM 0 0 0 0 1022.3 1022.2 0.0
21/04:30am 13.6 13.4 13.0 96 0.3 E 6 7 3 4 1022.2 1022.1 0.0
21/04:00am 13.8 14.0 13.2 96 0.3 E 4 6 2 3 1022.0 1021.9 0.0
21/03:30am 14.4 15.2 13.6 95 0.4 SE 2 9 1 5 1021.9 1021.8 0.0
21/03:00am 14.6 15.6 13.3 92 0.7 CALM 0 0 0 0 1021.8 1021.7 0.0
21/02:30am 15.0 16.2 13.7 92 0.7 CALM 0 0 0 0 1021.9 1021.8 0.0
21/02:00am 15.2 16.4 13.7 91 0.8 CALM 0 0 0 0 1022.0 1021.9 0.0
21/01:30am 15.6 16.7 13.6 88 1.1 CALM 0 0 0 0 1022.1 1022.0 0.0
21/01:00am 16.6 17.9 14.1 85 1.4 CALM 0 0 0 0 1022.2 1022.1 0.0
21/12:30am 17.8 19.0 14.9 83 1.7 E 2 6 1 3 1022.2 1022.1 0.0
21/12:00am 19.1 19.8 15.6 80 2.1 ENE 6 9 3 5 1022.3 1022.2 0.0
 
Date/Time
EST
Temp
°C
App
Temp
°C
Dew
Point
°C
Rel
Hum
%
Delta-T
°C
Wind Press
QNH
hPa
Press
MSL
hPa
Rain since
9am
mm
Dir  Spd
km/h
Gust
km/h
Spd
kts
Gust
kts
20/11:30pm 19.9 20.5 15.7 77 2.5 E 7 11 4 6 1022.3 1022.2 0.0
20/11:00pm 20.2 20.5 16.0 77 2.5 E 9 17 5 9 1022.3 1022.2 0.0
20/10:30pm 19.8 20.4 15.9 78 2.3 E 7 13 4 7 1022.4 1022.3 0.0
20/10:00pm 20.1 20.8 16.1 78 2.4 E 7 13 4 7 1022.4 1022.3 0.0
20/09:30pm 20.1 20.4 16.1 78 2.4 E 9 13 5 7 1022.5 1022.4 0.0
20/09:00pm 20.4 20.4 16.2 77 2.5 ESE 11 19 6 10 1022.4 1022.3 0.0
20/08:30pm 20.5 20.4 15.9 75 2.8 ESE 11 17 6 9 1022.4 1022.3 0.0
20/08:00pm 20.7 20.4 15.5 72 3.1 ESE 11 17 6 9 1022.0 1021.9 0.0
20/07:30pm 21.0 20.6 15.1 69 3.5 ESE 11 15 6 8 1021.6 1021.5 0.0
20/07:00pm 21.4 20.6 15.0 67 3.8 ESE 13 22 7 12 1021.3 1021.2 0.0
20/06:30pm 21.6 20.6 14.7 65 4.1 E 13 24 7 13 1020.8 1020.7 0.0
20/06:00pm 22.1 20.8 14.7 63 4.4 E 15 22 8 12 1020.5 1020.4 0.0
20/05:30pm 22.9 20.8 13.7 56 5.4 E 17 28 9 15 1020.1 1020.0 0.0
20/05:00pm 23.7 20.7 12.7 50 6.3 E 20 30 11 16 1020.0 1019.9 0.0
20/04:30pm 24.5 21.9 12.1 46 7.1 ENE 17 26 9 14 1019.7 1019.6 0.0
20/04:00pm 25.2 23.1 12.4 45 7.3 ENE 15 22 8 12 1019.5 1019.4 0.0
20/03:30pm 25.5 22.9 12.0 43 7.7 ENE 17 26 9 14 1019.6 1019.5 0.0
20/03:00pm 26.8 23.5 9.6 34 9.5 ENE 17 33 9 18 1019.7 1019.6 0.0

Other formats

Comma delimited format used in spreadsheet applications
http://www.bom.gov.au/fwo/IDQ60801/IDQ60801.95370.axf

JavaScript Object Notation format (JSON) in row-major order
http://www.bom.gov.au/fwo/IDQ60801/IDQ60801.95370.json

Data quality

Most of these data are generated automatically and are frequently updated. Quality checks on data are not normally performed. It is possible for incorrect values to appear. Refer to information at About Latest Weather Observations and please check the disclaimer before using these data.